sensor_id;sensor_type;location;lat;lon;timestamp;temperature;humidity
37560;DHT22;23398;50.928;7.084;2023-04-15T00:00:39;7.50;60.60
37560;DHT22;23398;50.928;7.084;2023-04-15T00:03:05;7.50;60.80
37560;DHT22;23398;50.928;7.084;2023-04-15T00:05:31;7.50;61.10
37560;DHT22;23398;50.928;7.084;2023-04-15T00:07:57;7.50;61.20
37560;DHT22;23398;50.928;7.084;2023-04-15T00:10:24;7.40;61.00
37560;DHT22;23398;50.928;7.084;2023-04-15T00:12:50;7.40;61.00
37560;DHT22;23398;50.928;7.084;2023-04-15T00:15:16;7.40;61.00
37560;DHT22;23398;50.928;7.084;2023-04-15T00:17:42;7.40;61.00
37560;DHT22;23398;50.928;7.084;2023-04-15T00:20:08;7.30;61.00
37560;DHT22;23398;50.928;7.084;2023-04-15T00:22:34;7.30;61.10
37560;DHT22;23398;50.928;7.084;2023-04-15T00:25:00;7.20;61.10
37560;DHT22;23398;50.928;7.084;2023-04-15T00:27:26;7.20;61.20
37560;DHT22;23398;50.928;7.084;2023-04-15T00:29:52;7.20;61.30
37560;DHT22;23398;50.928;7.084;2023-04-15T00:32:17;7.10;61.40
37560;DHT22;23398;50.928;7.084;2023-04-15T00:34:43;7.10;61.60
37560;DHT22;23398;50.928;7.084;2023-04-15T00:37:09;7.10;61.60
37560;DHT22;23398;50.928;7.084;2023-04-15T00:39:35;7.10;61.70
37560;DHT22;23398;50.928;7.084;2023-04-15T00:42:01;7.00;61.50
37560;DHT22;23398;50.928;7.084;2023-04-15T00:44:28;7.00;61.40
37560;DHT22;23398;50.928;7.084;2023-04-15T00:46:54;7.00;61.60
37560;DHT22;23398;50.928;7.084;2023-04-15T00:49:20;6.90;61.70
37560;DHT22;23398;50.928;7.084;2023-04-15T00:51:46;6.90;61.70
37560;DHT22;23398;50.928;7.084;2023-04-15T00:54:11;6.90;61.70
37560;DHT22;23398;50.928;7.084;2023-04-15T00:56:38;6.80;61.60
37560;DHT22;23398;50.928;7.084;2023-04-15T00:59:04;6.80;61.70
37560;DHT22;23398;50.928;7.084;2023-04-15T01:01:32;6.70;61.50
37560;DHT22;23398;50.928;7.084;2023-04-15T01:03:58;6.70;61.60
37560;DHT22;23398;50.928;7.084;2023-04-15T01:06:24;6.70;61.80
37560;DHT22;23398;50.928;7.084;2023-04-15T01:08:49;6.60;61.80
37560;DHT22;23398;50.928;7.084;2023-04-15T01:11:16;6.60;62.10
37560;DHT22;23398;50.928;7.084;2023-04-15T01:13:41;6.60;62.30
37560;DHT22;23398;50.928;7.084;2023-04-15T01:16:08;6.50;62.40
37560;DHT22;23398;50.928;7.084;2023-04-15T01:18:36;6.50;62.60
37560;DHT22;23398;50.928;7.084;2023-04-15T01:21:05;6.40;62.80
37560;DHT22;23398;50.928;7.084;2023-04-15T01:23:33;6.40;63.00
37560;DHT22;23398;50.928;7.084;2023-04-15T01:26:01;6.40;63.20
37560;DHT22;23398;50.928;7.084;2023-04-15T01:28:28;6.40;63.30
37560;DHT22;23398;50.928;7.084;2023-04-15T01:31:10;6.30;63.40
37560;DHT22;23398;50.928;7.084;2023-04-15T01:33:36;6.30;63.90
37560;DHT22;23398;50.928;7.084;2023-04-15T01:36:02;6.30;63.60
37560;DHT22;23398;50.928;7.084;2023-04-15T01:38:28;6.30;63.80
37560;DHT22;23398;50.928;7.084;2023-04-15T01:40:54;6.20;63.80
37560;DHT22;23398;50.928;7.084;2023-04-15T01:43:20;6.20;63.90
37560;DHT22;23398;50.928;7.084;2023-04-15T01:45:45;6.20;64.00
37560;DHT22;23398;50.928;7.084;2023-04-15T01:48:12;6.10;63.90
37560;DHT22;23398;50.928;7.084;2023-04-15T01:50:37;6.10;64.00
37560;DHT22;23398;50.928;7.084;2023-04-15T01:53:03;6.10;64.30
37560;DHT22;23398;50.928;7.084;2023-04-15T01:55:29;6.00;64.40
37560;DHT22;23398;50.928;7.084;2023-04-15T01:57:55;6.00;64.40
37560;DHT22;23398;50.928;7.084;2023-04-15T02:00:21;6.00;64.50
37560;DHT22;23398;50.928;7.084;2023-04-15T02:02:47;6.00;64.70
37560;DHT22;23398;50.928;7.084;2023-04-15T02:05:12;6.00;64.60
37560;DHT22;23398;50.928;7.084;2023-04-15T02:07:39;6.00;64.60
37560;DHT22;23398;50.928;7.084;2023-04-15T02:10:04;5.90;64.50
37560;DHT22;23398;50.928;7.084;2023-04-15T02:12:30;5.90;64.60
37560;DHT22;23398;50.928;7.084;2023-04-15T02:14:56;5.80;64.80
37560;DHT22;23398;50.928;7.084;2023-04-15T02:17:21;5.80;64.90
37560;DHT22;23398;50.928;7.084;2023-04-15T02:19:47;5.80;64.90
37560;DHT22;23398;50.928;7.084;2023-04-15T02:22:12;5.80;64.80
37560;DHT22;23398;50.928;7.084;2023-04-15T02:24:42;5.70;64.60
37560;DHT22;23398;50.928;7.084;2023-04-15T02:27:08;5.70;64.60
37560;DHT22;23398;50.928;7.084;2023-04-15T02:29:34;5.70;64.80
37560;DHT22;23398;50.928;7.084;2023-04-15T02:31:59;5.60;64.70
37560;DHT22;23398;50.928;7.084;2023-04-15T02:34:25;5.60;64.70
37560;DHT22;23398;50.928;7.084;2023-04-15T02:36:51;5.60;64.80
37560;DHT22;23398;50.928;7.084;2023-04-15T02:39:21;5.60;64.90
37560;DHT22;23398;50.928;7.084;2023-04-15T02:41:47;5.50;64.80
37560;DHT22;23398;50.928;7.084;2023-04-15T02:44:16;5.50;65.00
37560;DHT22;23398;50.928;7.084;2023-04-15T02:46:45;5.50;65.20
37560;DHT22;23398;50.928;7.084;2023-04-15T02:49:15;5.50;65.30
37560;DHT22;23398;50.928;7.084;2023-04-15T02:51:40;5.50;65.30
37560;DHT22;23398;50.928;7.084;2023-04-15T02:54:06;5.40;65.20
37560;DHT22;23398;50.928;7.084;2023-04-15T02:56:33;5.40;65.40
37560;DHT22;23398;50.928;7.084;2023-04-15T02:58:58;5.40;65.70
37560;DHT22;23398;50.928;7.084;2023-04-15T03:01:24;5.40;66.50
37560;DHT22;23398;50.928;7.084;2023-04-15T03:03:50;5.40;65.80
37560;DHT22;23398;50.928;7.084;2023-04-15T03:06:16;5.40;65.90
37560;DHT22;23398;50.928;7.084;2023-04-15T03:08:41;5.30;65.70
37560;DHT22;23398;50.928;7.084;2023-04-15T03:11:07;5.40;65.80
37560;DHT22;23398;50.928;7.084;2023-04-15T03:13:33;5.30;65.60
37560;DHT22;23398;50.928;7.084;2023-04-15T03:15:58;5.30;65.50
37560;DHT22;23398;50.928;7.084;2023-04-15T03:18:24;5.30;66.30
37560;DHT22;23398;50.928;7.084;2023-04-15T03:20:49;5.30;65.70
37560;DHT22;23398;50.928;7.084;2023-04-15T03:23:15;5.30;65.80
37560;DHT22;23398;50.928;7.084;2023-04-15T03:25:41;5.30;65.80
37560;DHT22;23398;50.928;7.084;2023-04-15T03:28:07;5.30;65.80
37560;DHT22;23398;50.928;7.084;2023-04-15T03:30:32;5.30;66.30
37560;DHT22;23398;50.928;7.084;2023-04-15T03:32:58;5.30;66.60
37560;DHT22;23398;50.928;7.084;2023-04-15T03:35:23;5.30;66.50
37560;DHT22;23398;50.928;7.084;2023-04-15T03:37:49;5.30;66.30
37560;DHT22;23398;50.928;7.084;2023-04-15T03:40:15;5.30;66.20
37560;DHT22;23398;50.928;7.084;2023-04-15T03:42:41;5.30;66.10
37560;DHT22;23398;50.928;7.084;2023-04-15T03:45:07;5.30;66.00
37560;DHT22;23398;50.928;7.084;2023-04-15T03:47:32;5.30;66.00
37560;DHT22;23398;50.928;7.084;2023-04-15T03:49:58;5.20;65.80
37560;DHT22;23398;50.928;7.084;2023-04-15T03:52:23;5.20;65.80
37560;DHT22;23398;50.928;7.084;2023-04-15T03:54:49;5.20;66.00
37560;DHT22;23398;50.928;7.084;2023-04-15T03:57:15;5.20;66.20
37560;DHT22;23398;50.928;7.084;2023-04-15T03:59:41;5.20;66.40
37560;DHT22;23398;50.928;7.084;2023-04-15T04:02:07;5.20;66.60
37560;DHT22;23398;50.928;7.084;2023-04-15T04:04:32;5.10;66.50
37560;DHT22;23398;50.928;7.084;2023-04-15T04:06:58;5.10;67.30
37560;DHT22;23398;50.928;7.084;2023-04-15T04:09:23;5.10;66.60
37560;DHT22;23398;50.928;7.084;2023-04-15T04:11:50;5.10;66.50
37560;DHT22;23398;50.928;7.084;2023-04-15T04:14:15;5.00;66.40
37560;DHT22;23398;50.928;7.084;2023-04-15T04:16:41;5.00;66.60
37560;DHT22;23398;50.928;7.084;2023-04-15T04:19:07;5.00;66.70
37560;DHT22;23398;50.928;7.084;2023-04-15T04:21:32;5.00;66.80
37560;DHT22;23398;50.928;7.084;2023-04-15T04:23:58;5.00;67.10
37560;DHT22;23398;50.928;7.084;2023-04-15T04:26:24;5.00;67.10
37560;DHT22;23398;50.928;7.084;2023-04-15T04:28:49;5.00;67.20
37560;DHT22;23398;50.928;7.084;2023-04-15T04:31:15;5.00;67.30
37560;DHT22;23398;50.928;7.084;2023-04-15T04:33:41;4.90;67.00
37560;DHT22;23398;50.928;7.084;2023-04-15T04:36:06;4.90;66.70
37560;DHT22;23398;50.928;7.084;2023-04-15T04:38:32;4.90;67.10
37560;DHT22;23398;50.928;7.084;2023-04-15T04:40:58;4.90;67.30
37560;DHT22;23398;50.928;7.084;2023-04-15T04:43:23;4.90;67.50
37560;DHT22;23398;50.928;7.084;2023-04-15T04:45:49;4.90;67.40
37560;DHT22;23398;50.928;7.084;2023-04-15T04:48:14;4.90;67.50
37560;DHT22;23398;50.928;7.084;2023-04-15T04:50:41;4.90;67.60
37560;DHT22;23398;50.928;7.084;2023-04-15T04:53:07;4.80;67.60
37560;DHT22;23398;50.928;7.084;2023-04-15T04:55:33;4.80;67.50
37560;DHT22;23398;50.928;7.084;2023-04-15T04:58:01;4.80;67.40
37560;DHT22;23398;50.928;7.084;2023-04-15T05:00:27;4.80;67.30
37560;DHT22;23398;50.928;7.084;2023-04-15T05:02:53;4.80;67.40
37560;DHT22;23398;50.928;7.084;2023-04-15T05:05:18;4.80;67.60
37560;DHT22;23398;50.928;7.084;2023-04-15T05:07:44;4.80;67.80
37560;DHT22;23398;50.928;7.084;2023-04-15T05:10:10;4.80;67.90
37560;DHT22;23398;50.928;7.084;2023-04-15T05:12:35;4.80;67.60
37560;DHT22;23398;50.928;7.084;2023-04-15T05:15:03;4.80;68.20
37560;DHT22;23398;50.928;7.084;2023-04-15T05:17:28;4.80;68.40
37560;DHT22;23398;50.928;7.084;2023-04-15T05:19:56;4.80;68.60
37560;DHT22;23398;50.928;7.084;2023-04-15T05:22:21;4.90;68.80
37560;DHT22;23398;50.928;7.084;2023-04-15T05:24:47;4.90;67.60
37560;DHT22;23398;50.928;7.084;2023-04-15T05:27:13;5.00;68.10
37560;DHT22;23398;50.928;7.084;2023-04-15T05:29:38;5.00;68.50
37560;DHT22;23398;50.928;7.084;2023-04-15T05:32:04;5.10;68.60
37560;DHT22;23398;50.928;7.084;2023-04-15T05:34:30;5.20;68.90
37560;DHT22;23398;50.928;7.084;2023-04-15T05:36:55;5.30;69.20
37560;DHT22;23398;50.928;7.084;2023-04-15T05:39:21;5.30;69.60
37560;DHT22;23398;50.928;7.084;2023-04-15T05:41:46;5.40;69.80
37560;DHT22;23398;50.928;7.084;2023-04-15T05:44:12;5.60;70.30
37560;DHT22;23398;50.928;7.084;2023-04-15T05:46:38;5.70;70.60
37560;DHT22;23398;50.928;7.084;2023-04-15T05:49:03;5.80;70.90
37560;DHT22;23398;50.928;7.084;2023-04-15T05:51:29;6.00;71.20
37560;DHT22;23398;50.928;7.084;2023-04-15T05:53:54;6.20;71.40
37560;DHT22;23398;50.928;7.084;2023-04-15T05:56:20;6.40;71.50
37560;DHT22;23398;50.928;7.084;2023-04-15T05:58:46;6.60;71.60
37560;DHT22;23398;50.928;7.084;2023-04-15T06:01:12;6.80;71.60
37560;DHT22;23398;50.928;7.084;2023-04-15T06:03:37;7.00;71.60
37560;DHT22;23398;50.928;7.084;2023-04-15T06:06:04;7.30;71.70
37560;DHT22;23398;50.928;7.084;2023-04-15T06:08:29;7.50;71.50
37560;DHT22;23398;50.928;7.084;2023-04-15T06:10:55;7.80;71.50
37560;DHT22;23398;50.928;7.084;2023-04-15T06:13:21;8.00;71.60
37560;DHT22;23398;50.928;7.084;2023-04-15T06:15:47;8.30;71.60
37560;DHT22;23398;50.928;7.084;2023-04-15T06:18:12;8.60;71.40
37560;DHT22;23398;50.928;7.084;2023-04-15T06:20:38;8.90;71.30
37560;DHT22;23398;50.928;7.084;2023-04-15T06:23:04;9.10;71.00
37560;DHT22;23398;50.928;7.084;2023-04-15T06:25:29;9.50;70.90
37560;DHT22;23398;50.928;7.084;2023-04-15T06:27:55;9.80;70.80
37560;DHT22;23398;50.928;7.084;2023-04-15T06:30:20;10.10;69.10
37560;DHT22;23398;50.928;7.084;2023-04-15T06:32:46;10.40;68.90
37560;DHT22;23398;50.928;7.084;2023-04-15T06:35:12;10.70;68.80
37560;DHT22;23398;50.928;7.084;2023-04-15T06:37:38;11.10;68.20
37560;DHT22;23398;50.928;7.084;2023-04-15T06:40:05;11.40;67.80
37560;DHT22;23398;50.928;7.084;2023-04-15T06:42:30;11.80;67.80
37560;DHT22;23398;50.928;7.084;2023-04-15T06:44:56;12.10;67.40
37560;DHT22;23398;50.928;7.084;2023-04-15T06:47:22;12.50;66.70
37560;DHT22;23398;50.928;7.084;2023-04-15T06:49:47;12.80;66.00
37560;DHT22;23398;50.928;7.084;2023-04-15T06:52:13;13.10;65.20
37560;DHT22;23398;50.928;7.084;2023-04-15T06:54:38;13.40;64.60
37560;DHT22;23398;50.928;7.084;2023-04-15T06:57:05;13.80;64.30
37560;DHT22;23398;50.928;7.084;2023-04-15T06:59:31;14.10;63.80
37560;DHT22;23398;50.928;7.084;2023-04-15T07:01:57;14.60;63.70
37560;DHT22;23398;50.928;7.084;2023-04-15T07:04:22;15.10;64.20
37560;DHT22;23398;50.928;7.084;2023-04-15T07:06:48;15.70;64.00
37560;DHT22;23398;50.928;7.084;2023-04-15T07:09:14;16.40;63.30
37560;DHT22;23398;50.928;7.084;2023-04-15T07:11:39;17.10;62.30
37560;DHT22;23398;50.928;7.084;2023-04-15T07:14:05;17.90;61.70
37560;DHT22;23398;50.928;7.084;2023-04-15T07:16:31;18.80;60.80
37560;DHT22;23398;50.928;7.084;2023-04-15T07:18:56;19.70;59.40
37560;DHT22;23398;50.928;7.084;2023-04-15T07:21:23;20.60;57.80
37560;DHT22;23398;50.928;7.084;2023-04-15T07:23:48;21.50;56.30
37560;DHT22;23398;50.928;7.084;2023-04-15T07:26:14;22.40;55.00
37560;DHT22;23398;50.928;7.084;2023-04-15T07:28:39;23.20;53.90
37560;DHT22;23398;50.928;7.084;2023-04-15T07:31:06;23.90;52.30
37560;DHT22;23398;50.928;7.084;2023-04-15T07:33:31;24.50;50.60
37560;DHT22;23398;50.928;7.084;2023-04-15T07:35:57;25.10;49.20
37560;DHT22;23398;50.928;7.084;2023-04-15T07:38:22;25.50;47.90
37560;DHT22;23398;50.928;7.084;2023-04-15T07:40:48;25.90;46.60
37560;DHT22;23398;50.928;7.084;2023-04-15T07:43:14;26.10;46.00
37560;DHT22;23398;50.928;7.084;2023-04-15T07:45:39;26.40;45.50
37560;DHT22;23398;50.928;7.084;2023-04-15T07:48:05;26.50;45.20
37560;DHT22;23398;50.928;7.084;2023-04-15T07:50:31;26.80;44.80
37560;DHT22;23398;50.928;7.084;2023-04-15T07:52:56;27.00;44.60
37560;DHT22;23398;50.928;7.084;2023-04-15T07:55:22;27.20;43.40
37560;DHT22;23398;50.928;7.084;2023-04-15T07:57:48;27.40;42.70
37560;DHT22;23398;50.928;7.084;2023-04-15T08:00:14;27.50;41.40
37560;DHT22;23398;50.928;7.084;2023-04-15T08:02:40;27.20;40.30
37560;DHT22;23398;50.928;7.084;2023-04-15T08:05:07;26.90;40.00
37560;DHT22;23398;50.928;7.084;2023-04-15T08:07:33;26.60;40.80
37560;DHT22;23398;50.928;7.084;2023-04-15T08:09:59;26.10;40.40
37560;DHT22;23398;50.928;7.084;2023-04-15T08:12:25;25.80;40.50
37560;DHT22;23398;50.928;7.084;2023-04-15T08:14:50;25.60;41.60
37560;DHT22;23398;50.928;7.084;2023-04-15T08:17:16;25.50;41.70
37560;DHT22;23398;50.928;7.084;2023-04-15T08:19:42;25.50;41.20
37560;DHT22;23398;50.928;7.084;2023-04-15T08:22:07;25.60;41.00
37560;DHT22;23398;50.928;7.084;2023-04-15T08:24:33;25.60;40.30
37560;DHT22;23398;50.928;7.084;2023-04-15T08:26:59;25.50;39.90
37560;DHT22;23398;50.928;7.084;2023-04-15T08:29:25;25.30;39.80
37560;DHT22;23398;50.928;7.084;2023-04-15T08:31:52;25.10;39.60
37560;DHT22;23398;50.928;7.084;2023-04-15T08:34:18;24.80;39.10
37560;DHT22;23398;50.928;7.084;2023-04-15T08:36:44;24.40;38.70
37560;DHT22;23398;50.928;7.084;2023-04-15T08:39:09;24.00;39.20
37560;DHT22;23398;50.928;7.084;2023-04-15T08:41:40;23.60;39.40
37560;DHT22;23398;50.928;7.084;2023-04-15T08:44:09;23.20;40.20
37560;DHT22;23398;50.928;7.084;2023-04-15T08:46:35;22.90;40.60
37560;DHT22;23398;50.928;7.084;2023-04-15T08:49:03;22.60;40.40
37560;DHT22;23398;50.928;7.084;2023-04-15T08:51:29;22.30;40.80
37560;DHT22;23398;50.928;7.084;2023-04-15T08:53:56;22.10;40.90
37560;DHT22;23398;50.928;7.084;2023-04-15T08:56:25;22.00;41.50
37560;DHT22;23398;50.928;7.084;2023-04-15T08:58:51;22.00;41.50
37560;DHT22;23398;50.928;7.084;2023-04-15T09:01:17;22.10;42.00
37560;DHT22;23398;50.928;7.084;2023-04-15T09:03:43;22.30;42.40
37560;DHT22;23398;50.928;7.084;2023-04-15T09:06:10;22.60;42.80
37560;DHT22;23398;50.928;7.084;2023-04-15T09:08:36;22.90;42.20
37560;DHT22;23398;50.928;7.084;2023-04-15T09:11:02;23.30;42.20
37560;DHT22;23398;50.928;7.084;2023-04-15T09:13:28;23.60;41.50
37560;DHT22;23398;50.928;7.084;2023-04-15T09:15:54;24.10;41.10
37560;DHT22;23398;50.928;7.084;2023-04-15T09:18:29;24.20;40.70
37560;DHT22;23398;50.928;7.084;2023-04-15T09:20:55;24.40;39.70
37560;DHT22;23398;50.928;7.084;2023-04-15T09:23:21;24.40;39.40
37560;DHT22;23398;50.928;7.084;2023-04-15T09:25:47;24.40;39.30
37560;DHT22;23398;50.928;7.084;2023-04-15T09:28:13;24.30;39.30
37560;DHT22;23398;50.928;7.084;2023-04-15T09:30:42;24.20;39.60
37560;DHT22;23398;50.928;7.084;2023-04-15T09:33:13;24.30;40.10
37560;DHT22;23398;50.928;7.084;2023-04-15T09:35:39;24.40;40.60
37560;DHT22;23398;50.928;7.084;2023-04-15T09:38:06;24.60;40.60
37560;DHT22;23398;50.928;7.084;2023-04-15T09:40:33;24.90;40.50
37560;DHT22;23398;50.928;7.084;2023-04-15T09:42:59;25.20;40.20
37560;DHT22;23398;50.928;7.084;2023-04-15T09:45:26;25.60;40.60
37560;DHT22;23398;50.928;7.084;2023-04-15T09:47:52;26.20;40.00
37560;DHT22;23398;50.928;7.084;2023-04-15T09:50:19;26.80;39.70
37560;DHT22;23398;50.928;7.084;2023-04-15T09:52:45;27.40;39.10
37560;DHT22;23398;50.928;7.084;2023-04-15T09:55:12;28.10;38.20
37560;DHT22;23398;50.928;7.084;2023-04-15T09:57:38;28.60;37.60
37560;DHT22;23398;50.928;7.084;2023-04-15T10:00:07;29.00;36.40
37560;DHT22;23398;50.928;7.084;2023-04-15T10:02:34;29.20;34.90
37560;DHT22;23398;50.928;7.084;2023-04-15T10:05:01;29.10;33.80
37560;DHT22;23398;50.928;7.084;2023-04-15T10:07:27;28.90;33.50
37560;DHT22;23398;50.928;7.084;2023-04-15T10:09:54;28.70;33.80
37560;DHT22;23398;50.928;7.084;2023-04-15T10:12:21;28.50;34.30
37560;DHT22;23398;50.928;7.084;2023-04-15T10:15:05;28.30;35.10
37560;DHT22;23398;50.928;7.084;2023-04-15T10:17:32;28.20;35.70
37560;DHT22;23398;50.928;7.084;2023-04-15T10:20:03;28.20;36.00
37560;DHT22;23398;50.928;7.084;2023-04-15T10:24:56;28.50;35.30
37560;DHT22;23398;50.928;7.084;2023-04-15T10:27:22;28.70;35.00
37560;DHT22;23398;50.928;7.084;2023-04-15T10:29:49;28.90;35.10
37560;DHT22;23398;50.928;7.084;2023-04-15T10:32:18;29.10;34.70
37560;DHT22;23398;50.928;7.084;2023-04-15T10:34:46;28.90;34.00
37560;DHT22;23398;50.928;7.084;2023-04-15T10:37:19;28.70;33.80
37560;DHT22;23398;50.928;7.084;2023-04-15T10:39:44;28.40;33.60
37560;DHT22;23398;50.928;7.084;2023-04-15T10:42:20;27.90;33.60
37560;DHT22;23398;50.928;7.084;2023-04-15T10:44:50;27.40;33.70
37560;DHT22;23398;50.928;7.084;2023-04-15T10:47:20;27.00;34.60
37560;DHT22;23398;50.928;7.084;2023-04-15T10:49:57;26.50;35.00
37560;DHT22;23398;50.928;7.084;2023-04-15T10:52:26;26.00;35.30
37560;DHT22;23398;50.928;7.084;2023-04-15T10:55:03;25.60;35.90
37560;DHT22;23398;50.928;7.084;2023-04-15T10:57:40;25.20;36.60
37560;DHT22;23398;50.928;7.084;2023-04-15T11:00:11;24.90;36.60
37560;DHT22;23398;50.928;7.084;2023-04-15T11:02:57;24.50;36.90
37560;DHT22;23398;50.928;7.084;2023-04-15T11:08:08;23.10;37.10
37560;DHT22;23398;50.928;7.084;2023-04-15T11:15:38;23.00;38.60
37560;DHT22;23398;50.928;7.084;2023-04-15T11:20:47;22.60;39.40
37560;DHT22;23398;50.928;7.084;2023-04-15T11:23:15;22.50;39.50
37560;DHT22;23398;50.928;7.084;2023-04-15T11:25:42;22.30;39.90
37560;DHT22;23398;50.928;7.084;2023-04-15T11:28:08;22.20;40.10
37560;DHT22;23398;50.928;7.084;2023-04-15T11:30:35;21.90;40.10
37560;DHT22;23398;50.928;7.084;2023-04-15T11:33:07;21.80;40.50
37560;DHT22;23398;50.928;7.084;2023-04-15T11:35:33;21.60;40.90
37560;DHT22;23398;50.928;7.084;2023-04-15T11:38:12;21.50;41.20
37560;DHT22;23398;50.928;7.084;2023-04-15T11:40:39;21.30;42.00
37560;DHT22;23398;50.928;7.084;2023-04-15T11:43:10;21.30;42.40
37560;DHT22;23398;50.928;7.084;2023-04-15T11:45:37;21.30;42.20
37560;DHT22;23398;50.928;7.084;2023-04-15T11:48:10;21.40;42.50
37560;DHT22;23398;50.928;7.084;2023-04-15T11:50:37;21.50;42.60
37560;DHT22;23398;50.928;7.084;2023-04-15T11:53:09;21.60;42.50
37560;DHT22;23398;50.928;7.084;2023-04-15T11:55:46;21.60;41.90
37560;DHT22;23398;50.928;7.084;2023-04-15T11:58:16;21.60;41.80
37560;DHT22;23398;50.928;7.084;2023-04-15T12:00:50;21.50;41.50
37560;DHT22;23398;50.928;7.084;2023-04-15T12:03:25;21.40;41.80
37560;DHT22;23398;50.928;7.084;2023-04-15T12:06:13;21.10;41.70
37560;DHT22;23398;50.928;7.084;2023-04-15T12:11:14;20.60;42.00
37560;DHT22;23398;50.928;7.084;2023-04-15T12:13:47;20.40;42.30
37560;DHT22;23398;50.928;7.084;2023-04-15T12:16:18;20.20;43.10
37560;DHT22;23398;50.928;7.084;2023-04-15T12:18:53;19.90;43.10
37560;DHT22;23398;50.928;7.084;2023-04-15T12:21:25;19.60;43.40
37560;DHT22;23398;50.928;7.084;2023-04-15T12:26:18;19.20;43.50
37560;DHT22;23398;50.928;7.084;2023-04-15T12:29:11;18.90;43.70
37560;DHT22;23398;50.928;7.084;2023-04-15T12:32:07;18.70;44.20
37560;DHT22;23398;50.928;7.084;2023-04-15T12:34:34;18.50;44.80
37560;DHT22;23398;50.928;7.084;2023-04-15T12:37:02;18.40;44.60
37560;DHT22;23398;50.928;7.084;2023-04-15T12:39:30;18.20;45.20
37560;DHT22;23398;50.928;7.084;2023-04-15T12:41:57;18.10;45.50
37560;DHT22;23398;50.928;7.084;2023-04-15T12:44:24;17.90;45.60
37560;DHT22;23398;50.928;7.084;2023-04-15T12:46:51;17.80;46.20
37560;DHT22;23398;50.928;7.084;2023-04-15T12:49:18;17.70;46.10
37560;DHT22;23398;50.928;7.084;2023-04-15T12:51:48;17.60;46.60
37560;DHT22;23398;50.928;7.084;2023-04-15T12:54:15;18.30;47.50
37560;DHT22;23398;50.928;7.084;2023-04-15T12:56:41;17.30;46.90
37560;DHT22;23398;50.928;7.084;2023-04-15T12:59:07;17.20;47.00
37560;DHT22;23398;50.928;7.084;2023-04-15T13:01:33;17.10;47.20
37560;DHT22;23398;50.928;7.084;2023-04-15T13:03:58;17.10;47.70
37560;DHT22;23398;50.928;7.084;2023-04-15T13:06:24;17.00;47.70
37560;DHT22;23398;50.928;7.084;2023-04-15T13:08:50;16.90;47.70
37560;DHT22;23398;50.928;7.084;2023-04-15T13:11:16;16.80;47.90
37560;DHT22;23398;50.928;7.084;2023-04-15T13:13:42;16.70;48.00
37560;DHT22;23398;50.928;7.084;2023-04-15T13:16:07;16.70;48.20
37560;DHT22;23398;50.928;7.084;2023-04-15T13:18:34;16.60;48.60
37560;DHT22;23398;50.928;7.084;2023-04-15T13:21:00;16.50;48.70
37560;DHT22;23398;50.928;7.084;2023-04-15T13:23:26;16.40;48.80
37560;DHT22;23398;50.928;7.084;2023-04-15T13:25:51;16.40;49.20
37560;DHT22;23398;50.928;7.084;2023-04-15T13:28:17;16.30;49.10
37560;DHT22;23398;50.928;7.084;2023-04-15T13:30:43;16.20;49.40
37560;DHT22;23398;50.928;7.084;2023-04-15T13:33:08;16.20;49.70
37560;DHT22;23398;50.928;7.084;2023-04-15T13:35:35;16.10;50.00
37560;DHT22;23398;50.928;7.084;2023-04-15T13:38:00;16.10;50.40
37560;DHT22;23398;50.928;7.084;2023-04-15T13:40:26;16.20;50.80
37560;DHT22;23398;50.928;7.084;2023-04-15T13:42:52;16.00;50.60
37560;DHT22;23398;50.928;7.084;2023-04-15T13:45:18;15.90;51.00
37560;DHT22;23398;50.928;7.084;2023-04-15T13:47:43;15.90;51.20
37560;DHT22;23398;50.928;7.084;2023-04-15T13:50:09;15.80;51.30
37560;DHT22;23398;50.928;7.084;2023-04-15T13:52:35;15.90;51.50
37560;DHT22;23398;50.928;7.084;2023-04-15T13:55:02;15.80;51.40
37560;DHT22;23398;50.928;7.084;2023-04-15T13:57:28;15.80;51.50
37560;DHT22;23398;50.928;7.084;2023-04-15T13:59:53;15.70;51.80
37560;DHT22;23398;50.928;7.084;2023-04-15T14:02:20;15.70;51.90
37560;DHT22;23398;50.928;7.084;2023-04-15T14:04:46;15.70;52.60
37560;DHT22;23398;50.928;7.084;2023-04-15T14:07:11;15.70;52.20
37560;DHT22;23398;50.928;7.084;2023-04-15T14:09:37;15.70;52.60
37560;DHT22;23398;50.928;7.084;2023-04-15T14:12:03;15.80;52.90
37560;DHT22;23398;50.928;7.084;2023-04-15T14:14:29;15.90;53.50
37560;DHT22;23398;50.928;7.084;2023-04-15T14:16:55;16.10;53.60
37560;DHT22;23398;50.928;7.084;2023-04-15T14:19:21;16.00;53.50
37560;DHT22;23398;50.928;7.084;2023-04-15T14:21:46;16.10;54.00
37560;DHT22;23398;50.928;7.084;2023-04-15T14:24:12;16.10;54.10
37560;DHT22;23398;50.928;7.084;2023-04-15T14:26:38;16.20;54.00
37560;DHT22;23398;50.928;7.084;2023-04-15T14:29:03;16.30;54.00
37560;DHT22;23398;50.928;7.084;2023-04-15T14:31:29;16.30;54.40
37560;DHT22;23398;50.928;7.084;2023-04-15T14:33:55;16.30;54.50
37560;DHT22;23398;50.928;7.084;2023-04-15T14:36:20;16.40;54.40
37560;DHT22;23398;50.928;7.084;2023-04-15T14:38:46;16.40;54.80
37560;DHT22;23398;50.928;7.084;2023-04-15T14:41:12;16.40;54.80
37560;DHT22;23398;50.928;7.084;2023-04-15T14:43:38;16.50;55.10
37560;DHT22;23398;50.928;7.084;2023-04-15T14:46:03;16.60;55.40
37560;DHT22;23398;50.928;7.084;2023-04-15T14:48:30;16.60;55.20
37560;DHT22;23398;50.928;7.084;2023-04-15T14:50:56;16.70;55.00
37560;DHT22;23398;50.928;7.084;2023-04-15T14:53:22;16.70;54.70
37560;DHT22;23398;50.928;7.084;2023-04-15T14:55:47;16.80;55.00
37560;DHT22;23398;50.928;7.084;2023-04-15T14:58:13;16.80;55.10
37560;DHT22;23398;50.928;7.084;2023-04-15T15:00:39;16.80;55.10
37560;DHT22;23398;50.928;7.084;2023-04-15T15:03:08;16.80;54.70
37560;DHT22;23398;50.928;7.084;2023-04-15T15:05:44;16.70;55.20
37560;DHT22;23398;50.928;7.084;2023-04-15T15:08:11;16.70;55.70
37560;DHT22;23398;50.928;7.084;2023-04-15T15:10:38;16.60;55.20
37560;DHT22;23398;50.928;7.084;2023-04-15T15:13:05;16.50;55.10
37560;DHT22;23398;50.928;7.084;2023-04-15T15:15:32;16.40;55.10
37560;DHT22;23398;50.928;7.084;2023-04-15T15:17:58;16.30;55.20
37560;DHT22;23398;50.928;7.084;2023-04-15T15:20:24;16.10;55.60
37560;DHT22;23398;50.928;7.084;2023-04-15T15:22:50;16.10;55.80
37560;DHT22;23398;50.928;7.084;2023-04-15T15:25:15;16.00;56.00
37560;DHT22;23398;50.928;7.084;2023-04-15T15:27:41;15.90;56.50
37560;DHT22;23398;50.928;7.084;2023-04-15T15:30:08;15.90;56.80
37560;DHT22;23398;50.928;7.084;2023-04-15T15:32:34;15.90;56.90
37560;DHT22;23398;50.928;7.084;2023-04-15T15:34:59;15.80;56.70
37560;DHT22;23398;50.928;7.084;2023-04-15T15:37:25;15.80;57.00
37560;DHT22;23398;50.928;7.084;2023-04-15T15:39:51;15.70;57.20
37560;DHT22;23398;50.928;7.084;2023-04-15T15:42:21;15.70;57.20
37560;DHT22;23398;50.928;7.084;2023-04-15T15:44:47;15.70;57.30
37560;DHT22;23398;50.928;7.084;2023-04-15T15:47:14;15.60;57.30
37560;DHT22;23398;50.928;7.084;2023-04-15T15:49:40;15.60;57.50
37560;DHT22;23398;50.928;7.084;2023-04-15T15:52:06;15.60;57.20